sensor_id;sensor_type;location;lat;lon;timestamp;pressure;altitude;pressure_sealevel;temperature;humidity
43683;BME280;29285;52.128;21.060;2023-05-19T00:01:25;101476.54;;;12.30;100.00
43683;BME280;29285;52.128;21.060;2023-05-19T00:06:27;101477.59;;;12.29;100.00
43683;BME280;29285;52.128;21.060;2023-05-19T00:11:32;101476.90;;;12.25;100.00
43683;BME280;29285;52.128;21.060;2023-05-19T00:16:36;101474.98;;;12.28;100.00
43683;BME280;29285;52.128;21.060;2023-05-19T00:21:38;101474.80;;;12.32;100.00
43683;BME280;29285;52.128;21.060;2023-05-19T00:26:39;101469.23;;;12.32;100.00
43683;BME280;29285;52.128;21.060;2023-05-19T00:31:40;101468.00;;;12.34;100.00
43683;BME280;29285;52.128;21.060;2023-05-19T00:36:40;101463.65;;;12.34;100.00
43683;BME280;29285;52.128;21.060;2023-05-19T00:41:41;101467.13;;;12.34;100.00
43683;BME280;29285;52.128;21.060;2023-05-19T00:46:43;101466.24;;;12.35;100.00
43683;BME280;29285;52.128;21.060;2023-05-19T00:51:44;101469.20;;;12.36;100.00
43683;BME280;29285;52.128;21.060;2023-05-19T00:56:45;101465.39;;;12.33;100.00
43683;BME280;29285;52.128;21.060;2023-05-19T01:01:47;101461.03;;;12.33;100.00
43683;BME280;29285;52.128;21.060;2023-05-19T01:06:49;101461.05;;;12.29;100.00
43683;BME280;29285;52.128;21.060;2023-05-19T01:11:54;101457.93;;;12.27;100.00
43683;BME280;29285;52.128;21.060;2023-05-19T01:22:44;101453.24;;;12.25;100.00
43683;BME280;29285;52.128;21.060;2023-05-19T01:33:20;101444.69;;;12.31;100.00
43683;BME280;29285;52.128;21.060;2023-05-19T01:38:23;101450.98;;;12.28;100.00
43683;BME280;29285;52.128;21.060;2023-05-19T01:43:25;101444.54;;;12.25;100.00
43683;BME280;29285;52.128;21.060;2023-05-19T01:48:27;101442.83;;;12.21;100.00
43683;BME280;29285;52.128;21.060;2023-05-19T01:53:29;101441.63;;;12.17;100.00
43683;BME280;29285;52.128;21.060;2023-05-19T01:58:45;101437.46;;;12.15;100.00
43683;BME280;29285;52.128;21.060;2023-05-19T02:03:55;101433.10;;;12.16;100.00
43683;BME280;29285;52.128;21.060;2023-05-19T02:14:23;101432.44;;;12.11;100.00
43683;BME280;29285;52.128;21.060;2023-05-19T02:19:27;101431.23;;;12.10;100.00
43683;BME280;29285;52.128;21.060;2023-05-19T02:24:29;101429.14;;;12.12;100.00
43683;BME280;29285;52.128;21.060;2023-05-19T02:29:30;101429.84;;;12.11;100.00
43683;BME280;29285;52.128;21.060;2023-05-19T02:34:31;101430.37;;;12.09;100.00
43683;BME280;29285;52.128;21.060;2023-05-19T02:39:32;101432.98;;;12.05;100.00
43683;BME280;29285;52.128;21.060;2023-05-19T02:44:35;101434.19;;;12.03;100.00
43683;BME280;29285;52.128;21.060;2023-05-19T02:49:36;101434.36;;;12.02;100.00
43683;BME280;29285;52.128;21.060;2023-05-19T02:54:37;101431.60;;;11.98;100.00
43683;BME280;29285;52.128;21.060;2023-05-19T02:59:38;101432.48;;;11.97;100.00
43683;BME280;29285;52.128;21.060;2023-05-19T03:04:39;101432.98;;;11.98;100.00
43683;BME280;29285;52.128;21.060;2023-05-19T03:09:43;101436.29;;;12.00;100.00
43683;BME280;29285;52.128;21.060;2023-05-19T03:14:44;101438.02;;;12.02;100.00
43683;BME280;29285;52.128;21.060;2023-05-19T03:19:46;101440.80;;;12.03;100.00
43683;BME280;29285;52.128;21.060;2023-05-19T03:24:47;101440.11;;;12.06;100.00
43683;BME280;29285;52.128;21.060;2023-05-19T03:29:50;101440.12;;;12.04;100.00
43683;BME280;29285;52.128;21.060;2023-05-19T03:34:57;101439.08;;;12.02;100.00
43683;BME280;29285;52.128;21.060;2023-05-19T03:39:59;101442.36;;;12.03;100.00
43683;BME280;29285;52.128;21.060;2023-05-19T03:45:00;101438.03;;;12.04;100.00
43683;BME280;29285;52.128;21.060;2023-05-19T03:50:01;101438.20;;;12.03;100.00
43683;BME280;29285;52.128;21.060;2023-05-19T03:55:02;101438.55;;;12.06;100.00
43683;BME280;29285;52.128;21.060;2023-05-19T04:00:04;101439.07;;;12.07;100.00
43683;BME280;29285;52.128;21.060;2023-05-19T04:05:06;101440.29;;;12.03;100.00
43683;BME280;29285;52.128;21.060;2023-05-19T04:10:09;101439.94;;;12.01;100.00
43683;BME280;29285;52.128;21.060;2023-05-19T04:15:10;101439.93;;;12.02;100.00
43683;BME280;29285;52.128;21.060;2023-05-19T04:20:12;101440.28;;;12.04;100.00
43683;BME280;29285;52.128;21.060;2023-05-19T04:25:13;101440.11;;;12.04;100.00
43683;BME280;29285;52.128;21.060;2023-05-19T04:30:14;101439.77;;;12.08;100.00
43683;BME280;29285;52.128;21.060;2023-05-19T04:35:21;101437.65;;;12.12;100.00
43683;BME280;29285;52.128;21.060;2023-05-19T04:40:23;101438.17;;;12.13;100.00
43683;BME280;29285;52.128;21.060;2023-05-19T04:45:24;101441.84;;;12.10;100.00
43683;BME280;29285;52.128;21.060;2023-05-19T04:50:26;101440.46;;;12.08;100.00
43683;BME280;29285;52.128;21.060;2023-05-19T04:55:28;101440.81;;;12.08;100.00
43683;BME280;29285;52.128;21.060;2023-05-19T05:00:30;101438.90;;;12.01;100.00
43683;BME280;29285;52.128;21.060;2023-05-19T05:05:31;101445.01;;;11.97;100.00
43683;BME280;29285;52.128;21.060;2023-05-19T05:10:33;101445.69;;;11.95;100.00
43683;BME280;29285;52.128;21.060;2023-05-19T05:15:34;101442.56;;;11.96;100.00
43683;BME280;29285;52.128;21.060;2023-05-19T05:20:35;101443.41;;;12.04;100.00
43683;BME280;29285;52.128;21.060;2023-05-19T05:25:37;101442.83;;;12.18;100.00
43683;BME280;29285;52.128;21.060;2023-05-19T05:30:38;101442.79;;;12.27;100.00
43683;BME280;29285;52.128;21.060;2023-05-19T05:35:41;101443.83;;;12.32;100.00
43683;BME280;29285;52.128;21.060;2023-05-19T05:40:42;101441.38;;;12.33;100.00
43683;BME280;29285;52.128;21.060;2023-05-19T05:45:44;101439.06;;;12.42;100.00
43683;BME280;29285;52.128;21.060;2023-05-19T05:50:47;101439.56;;;12.46;100.00
43683;BME280;29285;52.128;21.060;2023-05-19T05:55:49;101438.67;;;12.49;100.00
43683;BME280;29285;52.128;21.060;2023-05-19T06:00:51;101440.56;;;12.53;100.00
43683;BME280;29285;52.128;21.060;2023-05-19T06:05:53;101443.30;;;12.59;100.00
43683;BME280;29285;52.128;21.060;2023-05-19T06:10:54;101441.89;;;12.63;100.00
43683;BME280;29285;52.128;21.060;2023-05-19T06:15:55;101446.73;;;12.66;100.00
43683;BME280;29285;52.128;21.060;2023-05-19T06:20:56;101446.04;;;12.65;100.00
43683;BME280;29285;52.128;21.060;2023-05-19T06:25:57;101448.45;;;12.70;100.00
43683;BME280;29285;52.128;21.060;2023-05-19T06:30:59;101448.43;;;12.72;100.00
43683;BME280;29285;52.128;21.060;2023-05-19T06:36:00;101445.33;;;12.68;100.00
43683;BME280;29285;52.128;21.060;2023-05-19T06:41:01;101443.55;;;12.72;100.00
43683;BME280;29285;52.128;21.060;2023-05-19T06:46:03;101444.19;;;12.82;100.00
43683;BME280;29285;52.128;21.060;2023-05-19T06:51:04;101449.73;;;12.85;100.00
43683;BME280;29285;52.128;21.060;2023-05-19T06:56:06;101451.59;;;12.91;100.00
43683;BME280;29285;52.128;21.060;2023-05-19T07:01:08;101451.45;;;12.89;100.00
43683;BME280;29285;52.128;21.060;2023-05-19T07:06:09;101446.52;;;12.95;100.00
43683;BME280;29285;52.128;21.060;2023-05-19T07:11:10;101444.74;;;12.98;100.00
43683;BME280;29285;52.128;21.060;2023-05-19T07:16:12;101445.98;;;12.99;100.00
43683;BME280;29285;52.128;21.060;2023-05-19T07:21:13;101439.45;;;13.07;100.00
43683;BME280;29285;52.128;21.060;2023-05-19T07:26:14;101439.57;;;13.14;100.00
43683;BME280;29285;52.128;21.060;2023-05-19T07:31:15;101439.34;;;13.20;100.00
43683;BME280;29285;52.128;21.060;2023-05-19T07:36:17;101437.72;;;13.25;100.00
43683;BME280;29285;52.128;21.060;2023-05-19T07:41:18;101442.21;;;13.28;100.00
43683;BME280;29285;52.128;21.060;2023-05-19T07:46:19;101441.36;;;13.27;100.00
43683;BME280;29285;52.128;21.060;2023-05-19T07:51:22;101438.73;;;13.29;100.00
43683;BME280;29285;52.128;21.060;2023-05-19T07:56:23;101439.63;;;13.26;100.00
43683;BME280;29285;52.128;21.060;2023-05-19T08:01:25;101439.63;;;13.25;100.00
43683;BME280;29285;52.128;21.060;2023-05-19T08:06:26;101438.91;;;13.27;100.00
43683;BME280;29285;52.128;21.060;2023-05-19T08:11:29;101438.17;;;13.32;100.00
43683;BME280;29285;52.128;21.060;2023-05-19T08:16:31;101437.29;;;13.32;100.00
43683;BME280;29285;52.128;21.060;2023-05-19T08:21:32;101440.45;;;13.32;100.00
43683;BME280;29285;52.128;21.060;2023-05-19T08:26:34;101438.02;;;13.29;100.00
43683;BME280;29285;52.128;21.060;2023-05-19T08:31:36;101437.16;;;13.29;100.00
43683;BME280;29285;52.128;21.060;2023-05-19T08:36:37;101439.77;;;13.29;100.00
43683;BME280;29285;52.128;21.060;2023-05-19T08:41:38;101445.17;;;13.29;100.00
43683;BME280;29285;52.128;21.060;2023-05-19T08:46:40;101443.33;;;13.21;100.00
43683;BME280;29285;52.128;21.060;2023-05-19T08:57:12;101441.38;;;13.25;100.00
43683;BME280;29285;52.128;21.060;2023-05-19T09:02:14;101443.04;;;13.33;100.00
43683;BME280;29285;52.128;21.060;2023-05-19T09:07:17;101445.77;;;13.40;100.00
43683;BME280;29285;52.128;21.060;2023-05-19T09:12:19;101442.07;;;13.43;100.00
43683;BME280;29285;52.128;21.060;2023-05-19T09:23:36;101446.21;;;13.50;100.00
43683;BME280;29285;52.128;21.060;2023-05-19T09:28:37;101441.51;;;13.49;100.00
43683;BME280;29285;52.128;21.060;2023-05-19T09:33:41;101435.91;;;13.52;100.00
43683;BME280;29285;52.128;21.060;2023-05-19T09:38:44;101435.02;;;13.55;100.00
43683;BME280;29285;52.128;21.060;2023-05-19T09:43:53;101438.11;;;13.58;100.00
43683;BME280;29285;52.128;21.060;2023-05-19T09:48:57;101441.56;;;13.61;100.00
43683;BME280;29285;52.128;21.060;2023-05-19T09:54:01;101441.73;;;13.61;100.00
43683;BME280;29285;52.128;21.060;2023-05-19T09:59:02;101442.41;;;13.63;100.00
43683;BME280;29285;52.128;21.060;2023-05-19T10:04:04;101440.15;;;13.63;100.00
43683;BME280;29285;52.128;21.060;2023-05-19T10:09:06;101436.41;;;13.70;100.00
43683;BME280;29285;52.128;21.060;2023-05-19T10:14:08;101437.55;;;13.77;100.00
43683;BME280;29285;52.128;21.060;2023-05-19T10:19:10;101438.65;;;13.87;100.00
43683;BME280;29285;52.128;21.060;2023-05-19T10:24:12;101431.90;;;13.97;100.00
43683;BME280;29285;52.128;21.060;2023-05-19T10:29:17;101429.66;;;14.08;100.00
43683;BME280;29285;52.128;21.060;2023-05-19T10:34:34;101421.33;;;14.18;100.00
43683;BME280;29285;52.128;21.060;2023-05-19T10:39:41;101415.64;;;14.26;100.00
43683;BME280;29285;52.128;21.060;2023-05-19T10:50:09;101417.94;;;14.36;100.00
43683;BME280;29285;52.128;21.060;2023-05-19T10:55:12;101415.23;;;14.42;100.00
43683;BME280;29285;52.128;21.060;2023-05-19T11:00:28;101417.00;;;14.52;100.00
43683;BME280;29285;52.128;21.060;2023-05-19T11:05:29;101415.76;;;14.64;100.00
43683;BME280;29285;52.128;21.060;2023-05-19T11:10:30;101413.34;;;14.76;100.00
43683;BME280;29285;52.128;21.060;2023-05-19T11:15:35;101416.97;;;14.89;100.00
43683;BME280;29285;52.128;21.060;2023-05-19T11:20:39;101416.29;;;14.99;100.00
43683;BME280;29285;52.128;21.060;2023-05-19T11:25:45;101412.88;;;15.04;100.00
43683;BME280;29285;52.128;21.060;2023-05-19T11:30:47;101416.79;;;15.09;100.00
43683;BME280;29285;52.128;21.060;2023-05-19T11:35:56;101422.25;;;15.07;100.00
43683;BME280;29285;52.128;21.060;2023-05-19T11:41:00;101419.00;;;15.03;100.00
43683;BME280;29285;52.128;21.060;2023-05-19T11:46:01;101414.45;;;15.04;100.00
43683;BME280;29285;52.128;21.060;2023-05-19T11:51:02;101418.09;;;15.05;100.00
43683;BME280;29285;52.128;21.060;2023-05-19T11:56:03;101415.34;;;15.02;100.00
43683;BME280;29285;52.128;21.060;2023-05-19T12:01:04;101416.74;;;15.02;100.00
43683;BME280;29285;52.128;21.060;2023-05-19T12:06:06;101419.95;;;15.08;100.00
43683;BME280;29285;52.128;21.060;2023-05-19T12:11:09;101421.80;;;15.13;100.00
43683;BME280;29285;52.128;21.060;2023-05-19T12:16:10;101419.64;;;15.17;100.00
43683;BME280;29285;52.128;21.060;2023-05-19T12:21:11;101421.23;;;15.16;100.00
43683;BME280;29285;52.128;21.060;2023-05-19T12:26:12;101418.85;;;15.12;100.00
43683;BME280;29285;52.128;21.060;2023-05-19T12:31:14;101418.81;;;15.14;100.00
43683;BME280;29285;52.128;21.060;2023-05-19T12:36:15;101418.18;;;15.20;100.00
43683;BME280;29285;52.128;21.060;2023-05-19T12:41:16;101417.40;;;15.25;100.00
43683;BME280;29285;52.128;21.060;2023-05-19T12:46:18;101417.13;;;15.20;100.00
43683;BME280;29285;52.128;21.060;2023-05-19T12:51:19;101413.36;;;15.17;100.00
43683;BME280;29285;52.128;21.060;2023-05-19T12:56:20;101411.44;;;15.16;100.00
43683;BME280;29285;52.128;21.060;2023-05-19T13:01:28;101408.47;;;15.16;100.00
43683;BME280;29285;52.128;21.060;2023-05-19T13:06:29;101405.61;;;15.19;100.00
43683;BME280;29285;52.128;21.060;2023-05-19T13:11:32;101409.40;;;15.23;100.00
43683;BME280;29285;52.128;21.060;2023-05-19T13:16:33;101410.76;;;15.25;100.00
43683;BME280;29285;52.128;21.060;2023-05-19T13:21:34;101408.16;;;15.23;100.00
43683;BME280;29285;52.128;21.060;2023-05-19T13:26:35;101411.90;;;15.20;100.00
43683;BME280;29285;52.128;21.060;2023-05-19T13:31:36;101415.77;;;15.18;100.00
43683;BME280;29285;52.128;21.060;2023-05-19T13:36:37;101419.80;;;15.18;100.00
43683;BME280;29285;52.128;21.060;2023-05-19T13:41:39;101415.89;;;15.12;100.00
43683;BME280;29285;52.128;21.060;2023-05-19T13:46:40;101409.33;;;15.07;100.00
43683;BME280;29285;52.128;21.060;2023-05-19T13:51:42;101404.79;;;15.07;100.00
43683;BME280;29285;52.128;21.060;2023-05-19T13:56:43;101407.58;;;15.07;100.00
43683;BME280;29285;52.128;21.060;2023-05-19T14:01:46;101400.31;;;15.12;100.00
43683;BME280;29285;52.128;21.060;2023-05-19T14:06:47;101401.29;;;15.17;100.00
43683;BME280;29285;52.128;21.060;2023-05-19T14:11:49;101404.71;;;15.21;100.00
43683;BME280;29285;52.128;21.060;2023-05-19T14:16:50;101404.21;;;15.19;100.00
43683;BME280;29285;52.128;21.060;2023-05-19T14:21:51;101404.11;;;15.15;100.00
43683;BME280;29285;52.128;21.060;2023-05-19T14:26:52;101407.17;;;15.10;100.00
43683;BME280;29285;52.128;21.060;2023-05-19T14:31:53;101408.44;;;15.06;100.00
43683;BME280;29285;52.128;21.060;2023-05-19T14:36:54;101409.35;;;15.06;100.00
43683;BME280;29285;52.128;21.060;2023-05-19T14:41:56;101409.19;;;15.04;100.00
43683;BME280;29285;52.128;21.060;2023-05-19T14:47:00;101411.65;;;15.04;100.00
43683;BME280;29285;52.128;21.060;2023-05-19T14:52:02;101406.58;;;15.04;100.00
43683;BME280;29285;52.128;21.060;2023-05-19T14:57:03;101407.27;;;15.04;100.00
43683;BME280;29285;52.128;21.060;2023-05-19T15:02:05;101410.01;;;15.08;100.00
43683;BME280;29285;52.128;21.060;2023-05-19T15:07:07;101413.77;;;15.03;100.00
43683;BME280;29285;52.128;21.060;2023-05-19T15:12:08;101417.05;;;15.04;100.00
43683;BME280;29285;52.128;21.060;2023-05-19T15:17:09;101419.10;;;15.07;100.00
43683;BME280;29285;52.128;21.060;2023-05-19T15:22:10;101422.44;;;15.06;100.00
43683;BME280;29285;52.128;21.060;2023-05-19T15:27:11;101425.02;;;15.08;100.00
43683;BME280;29285;52.128;21.060;2023-05-19T15:32:12;101419.06;;;15.10;100.00
43683;BME280;29285;52.128;21.060;2023-05-19T15:37:13;101415.02;;;15.11;100.00
43683;BME280;29285;52.128;21.060;2023-05-19T15:42:15;101414.50;;;15.11;100.00
43683;BME280;29285;52.128;21.060;2023-05-19T15:47:15;101412.05;;;15.11;100.00
43683;BME280;29285;52.128;21.060;2023-05-19T15:52:16;101414.70;;;15.09;100.00
43683;BME280;29285;52.128;21.060;2023-05-19T15:57:18;101410.54;;;15.07;100.00
43683;BME280;29285;52.128;21.060;2023-05-19T16:02:19;101407.27;;;15.05;100.00
43683;BME280;29285;52.128;21.060;2023-05-19T16:07:20;101401.42;;;14.99;100.00
43683;BME280;29285;52.128;21.060;2023-05-19T16:12:23;101403.58;;;14.96;100.00
43683;BME280;29285;52.128;21.060;2023-05-19T16:17:24;101400.33;;;14.92;100.00
43683;BME280;29285;52.128;21.060;2023-05-19T16:22:26;101401.95;;;14.89;100.00
43683;BME280;29285;52.128;21.060;2023-05-19T16:27:27;101399.90;;;14.86;100.00
43683;BME280;29285;52.128;21.060;2023-05-19T16:32:28;101400.98;;;14.84;100.00
43683;BME280;29285;52.128;21.060;2023-05-19T16:37:29;101398.27;;;14.79;100.00
43683;BME280;29285;52.128;21.060;2023-05-19T16:42:30;101396.73;;;14.78;100.00
43683;BME280;29285;52.128;21.060;2023-05-19T16:47:32;101399.89;;;14.75;100.00
43683;BME280;29285;52.128;21.060;2023-05-19T16:52:33;101402.40;;;14.71;100.00
43683;BME280;29285;52.128;21.060;2023-05-19T16:57:35;101398.23;;;14.69;100.00
43683;BME280;29285;52.128;21.060;2023-05-19T17:02:36;101395.30;;;14.66;100.00
43683;BME280;29285;52.128;21.060;2023-05-19T17:07:37;101395.19;;;14.62;100.00
43683;BME280;29285;52.128;21.060;2023-05-19T17:12:38;101394.88;;;14.60;100.00
43683;BME280;29285;52.128;21.060;2023-05-19T17:17:39;101391.73;;;14.61;100.00
43683;BME280;29285;52.128;21.060;2023-05-19T17:22:40;101397.00;;;14.58;100.00
43683;BME280;29285;52.128;21.060;2023-05-19T17:27:42;101394.23;;;14.57;100.00
43683;BME280;29285;52.128;21.060;2023-05-19T17:32:43;101389.90;;;14.55;100.00
43683;BME280;29285;52.128;21.060;2023-05-19T17:37:44;101391.49;;;14.53;100.00
43683;BME280;29285;52.128;21.060;2023-05-19T17:42:45;101393.45;;;14.52;100.00
43683;BME280;29285;52.128;21.060;2023-05-19T17:47:47;101393.30;;;14.49;100.00
43683;BME280;29285;52.128;21.060;2023-05-19T17:52:48;101394.90;;;14.48;100.00
43683;BME280;29285;52.128;21.060;2023-05-19T17:57:52;101398.40;;;14.47;100.00
43683;BME280;29285;52.128;21.060;2023-05-19T18:02:53;101401.04;;;14.46;100.00
43683;BME280;29285;52.128;21.060;2023-05-19T18:07:56;101400.88;;;14.45;100.00
43683;BME280;29285;52.128;21.060;2023-05-19T18:12:58;101399.84;;;14.44;100.00
43683;BME280;29285;52.128;21.060;2023-05-19T18:18:00;101396.73;;;14.42;100.00
43683;BME280;29285;52.128;21.060;2023-05-19T18:23:02;101395.35;;;14.40;100.00
43683;BME280;29285;52.128;21.060;2023-05-19T18:28:03;101398.85;;;14.39;100.00
43683;BME280;29285;52.128;21.060;2023-05-19T18:33:05;101402.01;;;14.39;100.00
43683;BME280;29285;52.128;21.060;2023-05-19T18:38:07;101410.41;;;14.37;100.00
43683;BME280;29285;52.128;21.060;2023-05-19T18:43:08;101416.02;;;14.37;100.00
43683;BME280;29285;52.128;21.060;2023-05-19T18:48:09;101420.89;;;14.37;100.00
43683;BME280;29285;52.128;21.060;2023-05-19T18:53:10;101424.91;;;14.37;100.00
43683;BME280;29285;52.128;21.060;2023-05-19T18:58:12;101426.50;;;14.35;100.00
43683;BME280;29285;52.128;21.060;2023-05-19T19:03:13;101430.54;;;14.35;100.00
43683;BME280;29285;52.128;21.060;2023-05-19T19:08:14;101433.34;;;14.34;100.00
43683;BME280;29285;52.128;21.060;2023-05-19T19:13:19;101435.77;;;14.34;100.00
43683;BME280;29285;52.128;21.060;2023-05-19T19:18:20;101438.57;;;14.34;100.00
43683;BME280;29285;52.128;21.060;2023-05-19T19:23:24;101442.75;;;14.34;100.00
43683;BME280;29285;52.128;21.060;2023-05-19T19:28:25;101445.19;;;14.35;100.00
43683;BME280;29285;52.128;21.060;2023-05-19T19:33:26;101443.25;;;14.36;100.00
43683;BME280;29285;52.128;21.060;2023-05-19T19:38:28;101443.25;;;14.36;100.00
43683;BME280;29285;52.128;21.060;2023-05-19T19:43:29;101442.18;;;14.36;100.00
43683;BME280;29285;52.128;21.060;2023-05-19T19:48:30;101447.96;;;14.36;100.00
43683;BME280;29285;52.128;21.060;2023-05-19T19:53:32;101450.75;;;14.36;100.00
43683;BME280;29285;52.128;21.060;2023-05-19T19:58:33;101455.80;;;14.37;100.00
43683;BME280;29285;52.128;21.060;2023-05-19T20:03:34;101451.42;;;14.38;100.00
43683;BME280;29285;52.128;21.060;2023-05-19T20:08:36;101457.54;;;14.37;100.00
43683;BME280;29285;52.128;21.060;2023-05-19T20:13:37;101456.31;;;14.38;100.00
43683;BME280;29285;52.128;21.060;2023-05-19T20:18:38;101452.67;;;14.36;100.00
43683;BME280;29285;52.128;21.060;2023-05-19T20:23:40;101455.48;;;14.35;100.00
43683;BME280;29285;52.128;21.060;2023-05-19T20:28:41;101453.75;;;14.34;100.00
43683;BME280;29285;52.128;21.060;2023-05-19T20:33:42;101455.16;;;14.33;100.00
43683;BME280;29285;52.128;21.060;2023-05-19T20:38:43;101457.61;;;14.33;100.00
43683;BME280;29285;52.128;21.060;2023-05-19T20:43:44;101458.50;;;14.31;100.00
43683;BME280;29285;52.128;21.060;2023-05-19T20:48:45;101462.19;;;14.30;100.00
43683;BME280;29285;52.128;21.060;2023-05-19T20:53:46;101468.30;;;14.30;100.00
43683;BME280;29285;52.128;21.060;2023-05-19T20:58:48;101465.88;;;14.27;100.00
43683;BME280;29285;52.128;21.060;2023-05-19T21:03:49;101463.61;;;14.27;100.00
43683;BME280;29285;52.128;21.060;2023-05-19T21:08:50;101468.67;;;14.27;100.00
43683;BME280;29285;52.128;21.060;2023-05-19T21:13:51;101468.17;;;14.26;100.00
43683;BME280;29285;52.128;21.060;2023-05-19T21:18:54;101473.08;;;14.24;100.00
43683;BME280;29285;52.128;21.060;2023-05-19T21:23:56;101469.45;;;14.22;100.00
43683;BME280;29285;52.128;21.060;2023-05-19T21:28:57;101459.54;;;14.19;100.00
43683;BME280;29285;52.128;21.060;2023-05-19T21:33:58;101459.43;;;14.14;100.00
43683;BME280;29285;52.128;21.060;2023-05-19T21:38:59;101462.92;;;14.12;100.00
43683;BME280;29285;52.128;21.060;2023-05-19T21:44:00;101465.21;;;14.12;100.00
43683;BME280;29285;52.128;21.060;2023-05-19T21:49:01;101464.52;;;14.12;100.00
43683;BME280;29285;52.128;21.060;2023-05-19T21:54:02;101466.80;;;14.10;100.00
43683;BME280;29285;52.128;21.060;2023-05-19T21:59:03;101465.14;;;14.04;100.00
43683;BME280;29285;52.128;21.060;2023-05-19T22:04:04;101464.94;;;14.05;100.00
43683;BME280;29285;52.128;21.060;2023-05-19T22:09:06;101465.64;;;14.06;100.00
43683;BME280;29285;52.128;21.060;2023-05-19T22:14:07;101462.13;;;14.07;100.00
43683;BME280;29285;52.128;21.060;2023-05-19T22:19:08;101461.25;;;14.08;100.00
43683;BME280;29285;52.128;21.060;2023-05-19T22:24:10;101462.64;;;14.08;100.00
43683;BME280;29285;52.128;21.060;2023-05-19T22:29:11;101462.82;;;14.08;100.00
43683;BME280;29285;52.128;21.060;2023-05-19T22:34:14;101464.23;;;14.07;100.00
43683;BME280;29285;52.128;21.060;2023-05-19T22:39:16;101458.30;;;14.06;100.00
43683;BME280;29285;52.128;21.060;2023-05-19T22:44:17;101458.47;;;14.07;100.00
43683;BME280;29285;52.128;21.060;2023-05-19T22:49:20;101460.73;;;14.08;100.00
43683;BME280;29285;52.128;21.060;2023-05-19T22:54:22;101461.07;;;14.08;100.00
43683;BME280;29285;52.128;21.060;2023-05-19T22:59:24;101461.94;;;14.08;100.00
43683;BME280;29285;52.128;21.060;2023-05-19T23:04:25;101463.69;;;14.08;100.00
43683;BME280;29285;52.128;21.060;2023-05-19T23:09:26;101455.47;;;14.08;100.00
43683;BME280;29285;52.128;21.060;2023-05-19T23:14:27;101454.09;;;14.09;100.00
43683;BME280;29285;52.128;21.060;2023-05-19T23:19:28;101452.69;;;14.09;100.00
43683;BME280;29285;52.128;21.060;2023-05-19T23:24:31;101456.89;;;14.08;100.00
43683;BME280;29285;52.128;21.060;2023-05-19T23:29:32;101455.32;;;14.08;100.00
43683;BME280;29285;52.128;21.060;2023-05-19T23:34:33;101446.75;;;14.10;100.00
43683;BME280;29285;52.128;21.060;2023-05-19T23:39:34;101449.36;;;14.10;100.00
43683;BME280;29285;52.128;21.060;2023-05-19T23:44:38;101445.17;;;14.10;100.00
43683;BME280;29285;52.128;21.060;2023-05-19T23:49:39;101445.02;;;14.08;100.00
43683;BME280;29285;52.128;21.060;2023-05-19T23:54:40;101445.19;;;14.07;100.00
43683;BME280;29285;52.128;21.060;2023-05-19T23:59:41;101443.46;;;14.07;100.00
